| time (UTC) | temp F | wind direction | speed knots | gust knots | rain 1hr in | rain 24hr in | rain mn in | humidity % | barometer mb |
| 20260906225316 | 87 | 229 | 0.0 | 0.0 | 0.00 | 0.00 | 0.00 | 25 | 1020.1 |
| 20260906224812 | 85 | 219 | 0.9 | 0.9 | 0.00 | 0.00 | 0.00 | 27 | 1020.4 |
| 20260906224308 | 86 | 228 | 0.0 | 0.0 | 0.00 | 0.00 | 0.00 | 28 | 1020.5 |
| 20260906223804 | 86 | 226 | 0.9 | 0.9 | 0.00 | 0.00 | 0.00 | 26 | 1020.4 |
| 20260906223300 | 88 | 195 | 0.0 | 0.0 | 0.00 | 0.00 | 0.00 | 24 | 1020.2 |
| 20260906222757 | 89 | 243 | 0.0 | 0.9 | 0.00 | 0.00 | 0.00 | 23 | 1020.2 |
| 20260906222257 | 88 | 224 | 0.0 | 0.9 | 0.00 | 0.00 | 0.00 | 29 | 1020.2 |
| 20260906221754 | 87 | 245 | 0.9 | 1.7 | 0.00 | 0.00 | 0.00 | 24 | 1020.1 |
| 20260906221249 | 89 | 226 | 0.0 | 0.0 | 0.00 | 0.00 | 0.00 | 25 | 1020.4 |
| 20260906220744 | 90 | 227 | 0.0 | 0.0 | 0.00 | 0.00 | 0.00 | 26 | 1020.4 |
| 20260906220239 | 89 | 216 | 0.0 | 0.0 | 0.00 | 0.00 | 0.00 | 27 | 1020.4 |
| 20260906215738 | 86 | 232 | 0.0 | 0.0 | 0.00 | 0.00 | 0.00 | 28 | 1020.6 |
| 20260906215233 | 86 | 233 | 0.0 | 0.9 | 0.00 | 0.00 | 0.00 | 29 | 1020.7 |
| 20260906214731 | 85 | 194 | 0.9 | 0.9 | 0.00 | 0.00 | 0.00 | 31 | 1020.8 |
| 20260906214227 | 84 | 218 | 0.0 | 0.9 | 0.00 | 0.00 | 0.00 | 32 | 1020.7 |
| 20260906213726 | 84 | 227 | 0.0 | 0.9 | 0.00 | 0.00 | 0.00 | 29 | 1020.8 |
| 20260906213225 | 84 | 229 | 0.0 | 0.0 | 0.00 | 0.00 | 0.00 | 29 | 1020.7 |
| 20260906212723 | 85 | 225 | 0.0 | 0.0 | 0.00 | 0.00 | 0.00 | 27 | 1021.0 |
| 20260906212219 | 85 | 233 | 0.0 | 0.0 | 0.00 | 0.00 | 0.00 | 26 | 1021.1 |
| 20260906211719 | 85 | 219 | 0.0 | 0.0 | 0.00 | 0.00 | 0.00 | 29 | 1021.0 |
| 20260906211214 | 85 | 225 | 0.0 | 0.0 | 0.00 | 0.00 | 0.00 | 27 | 1021.0 |
| 20260906210709 | 84 | 220 | 0.0 | 0.0 | 0.00 | 0.00 | 0.00 | 28 | 1021.3 |
| 20260906210209 | 84 | 223 | 0.0 | 0.0 | 0.00 | 0.00 | 0.00 | 28 | 1021.1 |
| 20260906205704 | 85 | 220 | 0.9 | 0.9 | 0.00 | 0.00 | 0.00 | 28 | 1021.3 |
| 20260906205201 | 86 | 220 | 0.9 | 0.9 | 0.00 | 0.00 | 0.00 | 25 | 1021.4 |
| 20260906204701 | 86 | 218 | 0.0 | 0.0 | 0.00 | 0.00 | 0.00 | 25 | 1021.5 |
| 20260906204200 | 87 | 219 | 0.0 | 0.0 | 0.00 | 0.00 | 0.00 | 26 | 1021.7 |
| 20260906203700 | 88 | 225 | 2.6 | 4.3 | 0.00 | 0.00 | 0.00 | 23 | 1021.7 |
| 20260906203155 | 88 | 234 | 0.0 | 0.0 | 0.00 | 0.00 | 0.00 | 28 | 1021.8 |
| 20260906202652 | 88 | 227 | 0.0 | 0.9 | 0.00 | 0.00 | 0.00 | 24 | 1021.9 |
| 20260906202151 | 86 | 230 | 0.0 | 0.0 | 0.00 | 0.00 | 0.00 | 28 | 1021.9 |
| 20260906201647 | 85 | 210 | 0.9 | 0.9 | 0.00 | 0.00 | 0.00 | 27 | 1022.1 |
| 20260906201145 | 85 | 223 | 0.0 | 0.9 | 0.00 | 0.00 | 0.00 | 28 | 1022.0 |
| 20260906200642 | 84 | 223 | 0.0 | 0.0 | 0.00 | 0.00 | 0.00 | 30 | 1022.4 |
| 20260906200138 | 84 | 206 | 0.0 | 0.0 | 0.00 | 0.00 | 0.00 | 31 | 1022.4 |
| 20260906195632 | 84 | 230 | 0.0 | 0.9 | 0.00 | 0.00 | 0.00 | 25 | 1022.4 |
| 20260906195129 | 85 | 236 | 0.0 | 0.9 | 0.00 | 0.00 | 0.00 | 26 | 1022.5 |
| 20260906194625 | 86 | 220 | 0.0 | 0.9 | 0.00 | 0.00 | 0.00 | 28 | 1022.5 |
| 20260906194120 | 85 | 233 | 0.9 | 1.7 | 0.00 | 0.00 | 0.00 | 25 | 1022.6 |
| 20260906193620 | 85 | 218 | 0.9 | 0.9 | 0.00 | 0.00 | 0.00 | 25 | 1022.6 |
| 20260906193116 | 84 | 216 | 0.9 | 1.7 | 0.00 | 0.00 | 0.00 | 26 | 1022.9 |
| 20260906192611 | 85 | 224 | 0.9 | 1.7 | 0.00 | 0.00 | 0.00 | 26 | 1022.9 |
| 20260906192110 | 85 | 238 | 0.0 | 0.9 | 0.00 | 0.00 | 0.00 | 26 | 1022.9 |
| 20260906191606 | 86 | 229 | 0.0 | 0.0 | 0.00 | 0.00 | 0.00 | 25 | 1022.9 |
| 20260906191105 | 87 | 241 | 0.0 | 0.9 | 0.00 | 0.00 | 0.00 | 23 | 1023.1 |
| 20260906190605 | 86 | 216 | 0.0 | 0.0 | 0.00 | 0.00 | 0.00 | 24 | 1023.2 |
| 20260906190059 | 85 | 224 | 1.7 | 1.7 | 0.00 | 0.00 | 0.00 | 26 | 1023.2 |
| 20260906185558 | 85 | 188 | 0.9 | 1.7 | 0.00 | 0.00 | 0.00 | 25 | 1023.1 |
| 20260906185057 | 84 | 211 | 0.9 | 0.9 | 0.00 | 0.00 | 0.00 | 25 | 1023.2 |
| 20260906184552 | 84 | 258 | 1.7 | 1.7 | 0.00 | 0.00 | 0.00 | 25 | 1023.4 |
| 20260906184048 | 83 | 200 | 0.0 | 0.9 | 0.00 | 0.00 | 0.00 | 25 | 1023.6 |
| 20260906183544 | 83 | 238 | 1.7 | 2.6 | 0.00 | 0.00 | 0.00 | 25 | 1023.4 |
| 20260906183039 | 84 | 256 | 0.9 | 1.7 | 0.00 | 0.00 | 0.00 | 25 | 1023.6 |
| 20260906182534 | 83 | 205 | 0.0 | 0.9 | 0.00 | 0.00 | 0.00 | 24 | 1023.8 |
| 20260906182030 | 83 | 205 | 0.9 | 0.9 | 0.00 | 0.00 | 0.00 | 25 | 1023.8 |
| 20260906181526 | 83 | 218 | 0.0 | 0.0 | 0.00 | 0.00 | 0.00 | 26 | 1023.8 |
| 20260906181021 | 84 | 216 | 1.7 | 2.6 | 0.00 | 0.00 | 0.00 | 24 | 1023.9 |
| 20260906180516 | 83 | 211 | 0.9 | 0.9 | 0.00 | 0.00 | 0.00 | 27 | 1024.3 |
| 20260906180015 | 83 | 227 | 1.7 | 2.6 | 0.00 | 0.00 | 0.00 | 24 | 1023.9 |
| 20260906175514 | 84 | 232 | 0.0 | 0.9 | 0.00 | 0.00 | 0.00 | 24 | 1024.0 |
| 20260906175009 | 85 | 210 | 0.9 | 0.9 | 0.00 | 0.00 | 0.00 | 22 | 1024.4 |
| 20260906174507 | 84 | 302 | 0.0 | 0.9 | 0.00 | 0.00 | 0.00 | 23 | 1024.3 |
| 20260906174003 | 84 | 217 | 0.0 | 0.9 | 0.00 | 0.00 | 0.00 | 26 | 1024.4 |
| 20260906173458 | 82 | 218 | 0.0 | 0.0 | 0.00 | 0.00 | 0.00 | 25 | 1024.6 |
| 20260906172957 | 84 | 214 | 0.0 | 0.0 | 0.00 | 0.00 | 0.00 | 25 | 1024.6 |
| 20260906172453 | 84 | 203 | 0.0 | 0.9 | 0.00 | 0.00 | 0.00 | 25 | 1024.5 |
| 20260906171949 | 83 | 229 | 0.0 | 0.0 | 0.00 | 0.00 | 0.00 | 26 | 1024.7 |
| 20260906171449 | 82 | 219 | 0.0 | 0.0 | 0.00 | 0.00 | 0.00 | 27 | 1025.0 |
| 20260906170944 | 81 | 224 | 0.0 | 0.0 | 0.00 | 0.00 | 0.00 | 30 | 1024.9 |
| 20260906170440 | 80 | 217 | 0.0 | 0.0 | 0.00 | 0.00 | 0.00 | 31 | 1024.9 |
| 20260906165937 | 81 | 217 | 0.0 | 0.0 | 0.00 | 0.00 | 0.00 | 31 | 1024.9 |
| 20260906165436 | 81 | 223 | 0.0 | 0.0 | 0.00 | 0.00 | 0.00 | 31 | 1025.1 |
| 20260906164931 | 80 | 221 | 0.9 | 0.9 | 0.00 | 0.00 | 0.00 | 31 | 1025.1 |
| 20260906164430 | 78 | 217 | 0.0 | 0.0 | 0.00 | 0.00 | 0.00 | 34 | 1024.9 |
| 20260906163927 | 75 | 216 | 0.0 | 0.0 | 0.00 | 0.00 | 0.00 | 37 | 1025.1 |
| 20260906163422 | 73 | 230 | 0.9 | 0.9 | 0.00 | 0.00 | 0.00 | 40 | 1025.3 |
| 20260906162920 | 73 | 235 | 0.0 | 0.0 | 0.00 | 0.00 | 0.00 | 39 | 1025.2 |
| 20260906162419 | 74 | 326 | 0.9 | 1.7 | 0.00 | 0.00 | 0.00 | 36 | 1025.5 |
| 20260906161914 | 74 | 269 | 0.0 | 0.9 | 0.00 | 0.00 | 0.00 | 36 | 1025.1 |
| 20260906161414 | 71 | 200 | 0.0 | 0.9 | 0.00 | 0.00 | 0.00 | 36 | 1025.2 |
| 20260906160913 | 70 | 333 | 0.9 | 0.9 | 0.00 | 0.00 | 0.00 | 38 | 1025.2 |
| 20260906160406 | 70 | 241 | 0.0 | 0.0 | 0.00 | 0.00 | 0.00 | 39 | 1025.2 |
| 20260906155905 | 70 | 82 | 1.7 | 2.6 | 0.00 | 0.00 | 0.00 | 38 | 1025.2 |
| 20260906155358 | 70 | 217 | 0.0 | 0.0 | 0.00 | 0.00 | 0.00 | 39 | 1025.3 |
| 20260906154855 | 70 | 316 | 0.9 | 1.7 | 0.00 | 0.00 | 0.00 | 39 | 1025.3 |
| 20260906154349 | 69 | 241 | 0.9 | 1.7 | 0.00 | 0.00 | 0.00 | 39 | 1025.2 |
| 20260906153848 | 69 | 258 | 0.9 | 1.7 | 0.00 | 0.00 | 0.00 | 40 | 1025.2 |
| 20260906153347 | 68 | 284 | 0.9 | 0.9 | 0.00 | 0.00 | 0.00 | 40 | 1025.3 |
| 20260906152842 | 67 | 2 | 0.9 | 0.9 | 0.00 | 0.00 | 0.00 | 40 | 1025.5 |
| 20260906152337 | 66 | 226 | 0.0 | 0.0 | 0.00 | 0.00 | 0.00 | 42 | 1025.3 |
| 20260906151836 | 66 | 253 | 2.6 | 4.3 | 0.00 | 0.00 | 0.00 | 42 | 1025.6 |
| 20260906151332 | 65 | 204 | 0.0 | 0.9 | 0.00 | 0.00 | 0.00 | 44 | 1025.7 |
| 20260906150827 | 64 | 241 | 0.0 | 0.9 | 0.00 | 0.00 | 0.00 | 44 | 1025.6 |
| 20260906150323 | 64 | 293 | 0.9 | 1.7 | 0.00 | 0.00 | 0.00 | 45 | 1025.6 |
| 20260906145822 | 64 | 317 | 0.9 | 1.7 | 0.00 | 0.00 | 0.00 | 45 | 1025.8 |
| 20260906145320 | 63 | 266 | 1.7 | 1.7 | 0.00 | 0.00 | 0.00 | 46 | 1025.7 |
| 20260906144816 | 62 | 315 | 1.7 | 2.6 | 0.00 | 0.00 | 0.00 | 45 | 1025.8 |
| 20260906144311 | 62 | 241 | 1.7 | 1.7 | 0.00 | 0.00 | 0.00 | 47 | 1025.9 |
| 20260906143810 | 62 | 293 | 2.6 | 2.6 | 0.00 | 0.00 | 0.00 | 46 | 1025.7 |
| 20260906143307 | 62 | 344 | 1.7 | 2.6 | 0.00 | 0.00 | 0.00 | 46 | 1025.8 |
| 20260906142802 | 61 | 260 | 2.6 | 2.6 | 0.00 | 0.00 | 0.00 | 47 | 1025.8 |
| 20260906142257 | 60 | 26 | 0.9 | 1.7 | 0.00 | 0.00 | 0.00 | 48 | 1025.8 |
| 20260906141756 | 60 | 220 | 0.0 | 0.0 | 0.00 | 0.00 | 0.00 | 50 | 1025.8 |
| 20260906141251 | 59 | 233 | 0.9 | 1.7 | 0.00 | 0.00 | 0.00 | 50 | 1025.7 |
| 20260906140750 | 59 | 250 | 2.6 | 2.6 | 0.00 | 0.00 | 0.00 | 50 | 1025.8 |
| 20260906140245 | 58 | 293 | 1.7 | 2.6 | 0.00 | 0.00 | 0.00 | 51 | 1025.8 |
| 20260906135742 | 57 | 266 | 1.7 | 1.7 | 0.00 | 0.00 | 0.00 | 52 | 1025.8 |
| 20260906135238 | 56 | 208 | 0.9 | 0.9 | 0.00 | 0.00 | 0.00 | 55 | 1025.7 |
| 20260906134733 | 58 | 207 | 0.9 | 1.7 | 0.00 | 0.00 | 0.00 | 53 | 1025.8 |
| 20260906134229 | 58 | 237 | 0.0 | 0.9 | 0.00 | 0.00 | 0.00 | 52 | 1025.9 |
| 20260906133724 | 58 | 253 | 0.0 | 0.9 | 0.00 | 0.00 | 0.00 | 51 | 1025.7 |
| 20260906133220 | 58 | 13 | 1.7 | 1.7 | 0.00 | 0.00 | 0.00 | 51 | 1025.8 |
| 20260906132715 | 58 | 328 | 0.9 | 0.9 | 0.00 | 0.00 | 0.00 | 51 | 1025.6 |
| 20260906132210 | 58 | 257 | 1.7 | 2.6 | 0.00 | 0.00 | 0.00 | 51 | 1025.2 |
| 20260906131706 | 57 | 228 | 0.9 | 0.9 | 0.00 | 0.00 | 0.00 | 51 | 1025.3 |
| 20260906131200 | 58 | 274 | 1.7 | 1.7 | 0.00 | 0.00 | 0.00 | 52 | 1025.2 |
| 20260906130656 | 58 | 245 | 0.9 | 1.7 | 0.00 | 0.00 | 0.00 | 51 | 1025.5 |
| 20260906130151 | 58 | 356 | 1.7 | 1.7 | 0.00 | 0.00 | 0.00 | 50 | 1025.2 |
| 20260906125649 | 58 | 305 | 1.7 | 1.7 | 0.00 | 0.00 | 0.00 | 50 | 1025.2 |
| 20260906125148 | 58 | 260 | 1.7 | 1.7 | 0.00 | 0.00 | 0.00 | 50 | 1025.1 |
| 20260906124643 | 59 | 234 | 0.0 | 0.9 | 0.00 | 0.00 | 0.00 | 50 | 1025.2 |
| 20260906124138 | 59 | 280 | 0.9 | 1.7 | 0.00 | 0.00 | 0.00 | 50 | 1025.2 |
| 20260906123637 | 59 | 356 | 1.7 | 1.7 | 0.00 | 0.00 | 0.00 | 49 | 1025.0 |
| 20260906123133 | 59 | 4 | 1.7 | 2.6 | 0.00 | 0.00 | 0.00 | 49 | 1025.0 |
| 20260906122632 | 59 | 336 | 0.9 | 1.7 | 0.00 | 0.00 | 0.00 | 49 | 1025.0 |
| 20260906122127 | 59 | 315 | 2.6 | 5.2 | 0.00 | 0.00 | 0.00 | 49 | 1024.9 |
| 20260906121623 | 59 | 260 | 0.9 | 1.7 | 0.00 | 0.00 | 0.00 | 49 | 1025.1 |
| 20260906121120 | 58 | 224 | 1.7 | 2.6 | 0.00 | 0.00 | 0.00 | 50 | 1025.0 |
| 20260906120615 | 58 | 9 | 1.7 | 2.6 | 0.00 | 0.00 | 0.00 | 50 | 1024.9 |
| 20260906120113 | 58 | 220 | 0.0 | 0.0 | 0.00 | 0.00 | 0.00 | 51 | 1024.7 |
| 20260906115612 | 58 | 214 | 0.9 | 1.7 | 0.00 | 0.00 | 0.00 | 50 | 1024.9 |
| 20260906115108 | 58 | 195 | 0.9 | 1.7 | 0.00 | 0.00 | 0.00 | 50 | 1024.6 |
| 20260906114608 | 58 | 238 | 0.0 | 1.7 | 0.00 | 0.00 | 0.00 | 51 | 1025.0 |
| 20260906114103 | 59 | 238 | 0.9 | 0.9 | 0.00 | 0.00 | 0.00 | 50 | 1024.9 |
| 20260906113602 | 59 | 248 | 2.6 | 2.6 | 0.00 | 0.00 | 0.00 | 50 | 1024.6 |
| 20260906113058 | 59 | 25 | 1.7 | 2.6 | 0.00 | 0.00 | 0.00 | 50 | 1024.6 |
| 20260906112557 | 59 | 228 | 0.9 | 0.9 | 0.00 | 0.00 | 0.00 | 50 | 1024.5 |
| 20260906112054 | 59 | 217 | 0.9 | 0.9 | 0.00 | 0.00 | 0.00 | 50 | 1024.7 |
| 20260906111553 | 59 | 220 | 0.9 | 0.9 | 0.00 | 0.00 | 0.00 | 50 | 1024.6 |
| 20260906111049 | 59 | 93 | 2.6 | 5.2 | 0.00 | 0.00 | 0.00 | 49 | 1024.6 |
| 20260906110548 | 59 | 234 | 0.0 | 0.9 | 0.00 | 0.00 | 0.00 | 50 | 1024.4 |
| 20260906110048 | 59 | 211 | 1.7 | 2.6 | 0.00 | 0.00 | 0.00 | 49 | 1024.7 |
| 20260906105543 | 59 | 225 | 0.9 | 0.9 | 0.00 | 0.00 | 0.00 | 50 | 1024.5 |
| 20260906105039 | 59 | 208 | 0.0 | 0.9 | 0.00 | 0.00 | 0.00 | 49 | 1024.6 |
| 20260906104537 | 59 | 298 | 0.9 | 1.7 | 0.00 | 0.00 | 0.00 | 49 | 1024.9 |
| 20260906104032 | 59 | 258 | 0.9 | 0.9 | 0.00 | 0.00 | 0.00 | 49 | 1024.4 |
| 20260906103530 | 59 | 197 | 1.7 | 2.6 | 0.00 | 0.00 | 0.00 | 49 | 1024.5 |
| 20260906103026 | 59 | 239 | 0.9 | 0.9 | 0.00 | 0.00 | 0.00 | 50 | 1024.7 |
| 20260906102526 | 59 | 219 | 2.6 | 4.3 | 0.00 | 0.00 | 0.00 | 49 | 1024.6 |
| 20260906102021 | 59 | 247 | 0.9 | 0.9 | 0.00 | 0.00 | 0.00 | 50 | 1024.6 |
| 20260906101515 | 59 | 221 | 0.0 | 0.9 | 0.00 | 0.00 | 0.00 | 50 | 1024.9 |
| 20260906101010 | 59 | 284 | 0.9 | 2.6 | 0.00 | 0.00 | 0.00 | 49 | 1024.9 |
| 20260906100506 | 59 | 348 | 2.6 | 5.2 | 0.00 | 0.00 | 0.00 | 50 | 1024.6 |
| 20260906100000 | 59 | 244 | 0.0 | 0.9 | 0.00 | 0.00 | 0.00 | 50 | 1025.0 |
| 20260906095455 | 60 | 337 | 0.9 | 0.9 | 0.00 | 0.00 | 0.00 | 49 | 1025.0 |
| 20260906094950 | 60 | 222 | 0.0 | 0.0 | 0.00 | 0.00 | 0.00 | 49 | 1024.7 |
| 20260906094449 | 60 | 212 | 0.0 | 0.9 | 0.00 | 0.00 | 0.00 | 49 | 1024.5 |
| 20260906093945 | 60 | 237 | 0.9 | 0.9 | 0.00 | 0.00 | 0.00 | 49 | 1024.6 |
| 20260906093441 | 60 | 264 | 0.0 | 0.9 | 0.00 | 0.00 | 0.00 | 49 | 1024.6 |
| 20260906092942 | 60 | 215 | 1.7 | 1.7 | 0.00 | 0.00 | 0.00 | 50 | 1024.7 |
| 20260906092441 | 60 | 208 | 0.9 | 2.6 | 0.00 | 0.00 | 0.00 | 49 | 1024.5 |
| 20260906091937 | 60 | 214 | 0.0 | 0.9 | 0.00 | 0.00 | 0.00 | 50 | 1024.5 |
| 20260906091432 | 60 | 206 | 1.7 | 1.7 | 0.00 | 0.00 | 0.00 | 50 | 1024.4 |
| 20260906090929 | 60 | 265 | 0.9 | 0.9 | 0.00 | 0.00 | 0.00 | 49 | 1024.7 |
| 20260906090424 | 60 | 218 | 0.9 | 0.9 | 0.00 | 0.00 | 0.00 | 50 | 1024.5 |
| 20260906085918 | 60 | 276 | 1.7 | 1.7 | 0.00 | 0.00 | 0.00 | 48 | 1024.5 |
| 20260906085417 | 60 | 222 | 0.9 | 1.7 | 0.00 | 0.00 | 0.00 | 48 | 1024.5 |
| 20260906084917 | 60 | 334 | 3.5 | 5.2 | 0.00 | 0.00 | 0.00 | 48 | 1024.6 |
| 20260906084412 | 60 | 221 | 0.0 | 0.0 | 0.00 | 0.00 | 0.00 | 49 | 1024.5 |
| 20260906083911 | 60 | 297 | 1.7 | 2.6 | 0.00 | 0.00 | 0.00 | 49 | 1024.5 |
| 20260906083407 | 60 | 269 | 1.7 | 1.7 | 0.00 | 0.00 | 0.00 | 48 | 1024.7 |
| 20260906082906 | 61 | 242 | 0.9 | 0.9 | 0.00 | 0.00 | 0.00 | 48 | 1024.4 |
| 20260906082401 | 61 | 245 | 0.9 | 0.9 | 0.00 | 0.00 | 0.00 | 48 | 1024.4 |
| 20260906081857 | 61 | 220 | 0.0 | 0.9 | 0.00 | 0.00 | 0.00 | 48 | 1024.4 |
| 20260906081352 | 61 | 215 | 0.9 | 0.9 | 0.00 | 0.00 | 0.00 | 48 | 1024.6 |
| 20260906080848 | 61 | 283 | 2.6 | 2.6 | 0.00 | 0.00 | 0.00 | 48 | 1024.5 |
| 20260906080345 | 61 | 285 | 2.6 | 2.6 | 0.00 | 0.00 | 0.00 | 48 | 1024.6 |
| 20260906075844 | 60 | 353 | 0.9 | 1.7 | 0.00 | 0.00 | 0.00 | 48 | 1024.6 |
| 20260906075338 | 60 | 281 | 0.9 | 1.7 | 0.00 | 0.00 | 0.00 | 49 | 1024.4 |
| 20260906074834 | 58 | 204 | 0.9 | 0.9 | 0.00 | 0.00 | 0.00 | 52 | 1024.7 |
| 20260906074334 | 60 | 180 | 1.7 | 2.6 | 0.00 | 0.00 | 0.00 | 49 | 1024.6 |
| 20260906073832 | 60 | 191 | 0.0 | 0.0 | 0.00 | 0.00 | 0.00 | 49 | 1024.5 |
| 20260906073328 | 59 | 245 | 0.9 | 0.9 | 0.00 | 0.00 | 0.00 | 51 | 1024.7 |
| 20260906072824 | 57 | 261 | 0.0 | 0.0 | 0.00 | 0.00 | 0.00 | 53 | 1024.7 |
| 20260906072320 | 57 | 248 | 0.0 | 0.0 | 0.00 | 0.00 | 0.00 | 55 | 1024.9 |
| 20260906071815 | 56 | 222 | 0.0 | 0.9 | 0.00 | 0.00 | 0.00 | 55 | 1024.7 |
| 20260906071310 | 55 | 206 | 0.0 | 0.0 | 0.00 | 0.00 | 0.00 | 55 | 1024.7 |
| 20260906070807 | 56 | 196 | 0.9 | 1.7 | 0.00 | 0.00 | 0.00 | 53 | 1025.0 |
| 20260906070302 | 57 | 213 | 0.0 | 0.0 | 0.00 | 0.00 | 0.00 | 52 | 1024.6 |
| 20260906065801 | 61 | 206 | 0.0 | 0.0 | 0.00 | 0.00 | 0.00 | 49 | 1024.7 |
| 20260906065257 | 60 | 226 | 0.0 | 0.0 | 0.00 | 0.00 | 0.00 | 50 | 1024.7 |
| 20260906064753 | 59 | 220 | 0.0 | 0.0 | 0.00 | 0.00 | 0.00 | 50 | 1024.6 |
| 20260906064248 | 59 | 219 | 0.0 | 0.0 | 0.00 | 0.00 | 0.00 | 50 | 1024.6 |
| 20260906063743 | 59 | 203 | 0.0 | 0.0 | 0.00 | 0.00 | 0.00 | 51 | 1024.5 |
| 20260906063239 | 57 | 258 | 0.0 | 0.9 | 0.00 | 0.00 | 0.00 | 54 | 1024.6 |
| 20260906062734 | 57 | 213 | 0.0 | 0.0 | 0.00 | 0.00 | 0.00 | 54 | 1024.3 |
| 20260906062233 | 58 | 213 | 0.0 | 0.0 | 0.00 | 0.00 | 0.00 | 52 | 1024.6 |
| 20260906061729 | 57 | 167 | 0.9 | 1.7 | 0.00 | 0.00 | 0.00 | 52 | 1024.5 |
| 20260906061225 | 57 | 212 | 0.0 | 0.0 | 0.00 | 0.00 | 0.00 | 52 | 1024.4 |
| 20260906060720 | 58 | 167 | 1.7 | 1.7 | 0.00 | 0.00 | 0.00 | 51 | 1024.3 |
| 20260906060218 | 58 | 166 | 0.9 | 0.9 | 0.00 | 0.00 | 0.00 | 52 | 1024.2 |
| 20260906055713 | 59 | 190 | 0.0 | 0.9 | 0.00 | 0.00 | 0.00 | 51 | 1024.0 |
| 20260906055208 | 59 | 218 | 0.0 | 0.0 | 0.00 | 0.00 | 0.00 | 52 | 1024.3 |
| 20260906054704 | 59 | 214 | 0.0 | 0.0 | 0.00 | 0.00 | 0.00 | 52 | 1024.3 |
| 20260906054204 | 60 | 170 | 0.9 | 0.9 | 0.00 | 0.00 | 0.00 | 48 | 1024.3 |
| 20260906053701 | 59 | 217 | 0.0 | 0.0 | 0.00 | 0.00 | 0.00 | 51 | 1024.0 |
| 20260906053155 | 59 | 217 | 0.0 | 0.0 | 0.00 | 0.00 | 0.00 | 50 | 1024.2 |
| 20260906052651 | 60 | 173 | 1.7 | 1.7 | 0.00 | 0.00 | 0.00 | 50 | 1024.2 |
| 20260906052147 | 60 | 238 | 0.0 | 0.0 | 0.00 | 0.00 | 0.00 | 50 | 1024.3 |
| 20260906051644 | 60 | 214 | 0.0 | 0.0 | 0.00 | 0.00 | 0.00 | 50 | 1024.0 |
| 20260906051143 | 61 | 209 | 0.0 | 0.0 | 0.00 | 0.00 | 0.00 | 48 | 1024.0 |
| 20260906050638 | 61 | 220 | 0.0 | 0.0 | 0.00 | 0.00 | 0.00 | 49 | 1023.9 |
| 20260906050134 | 61 | 219 | 0.0 | 0.0 | 0.00 | 0.00 | 0.00 | 49 | 1023.7 |
| 20260906045632 | 61 | 201 | 0.9 | 0.9 | 0.00 | 0.00 | 0.00 | 52 | 1023.8 |
| 20260906045127 | 59 | 228 | 0.0 | 0.0 | 0.00 | 0.00 | 0.00 | 51 | 1023.8 |
| 20260906044623 | 60 | 210 | 0.0 | 0.0 | 0.00 | 0.00 | 0.00 | 52 | 1023.8 |
| 20260906044118 | 60 | 217 | 0.0 | 0.0 | 0.00 | 0.00 | 0.00 | 52 | 1023.7 |
| 20260906043615 | 60 | 216 | 0.0 | 0.0 | 0.00 | 0.00 | 0.00 | 51 | 1023.7 |
| 20260906043110 | 61 | 174 | 0.0 | 0.9 | 0.00 | 0.00 | 0.00 | 51 | 1023.8 |
| 20260906042609 | 61 | 221 | 0.0 | 0.0 | 0.00 | 0.00 | 0.00 | 50 | 1023.6 |
| 20260906042104 | 61 | 210 | 0.9 | 1.7 | 0.00 | 0.00 | 0.00 | 49 | 1023.4 |
| 20260906041600 | 61 | 169 | 0.9 | 0.9 | 0.00 | 0.00 | 0.00 | 50 | 1023.4 |
| 20260906041054 | 61 | 191 | 0.0 | 0.9 | 0.00 | 0.00 | 0.00 | 49 | 1023.3 |
| 20260906040550 | 62 | 206 | 0.0 | 0.0 | 0.00 | 0.00 | 0.00 | 51 | 1023.6 |
| 20260906040045 | 62 | 208 | 0.0 | 0.0 | 0.00 | 0.00 | 0.00 | 49 | 1023.4 |
| 20260906035541 | 63 | 210 | 0.0 | 0.0 | 0.00 | 0.00 | 0.00 | 48 | 1023.3 |
| 20260906035037 | 63 | 213 | 0.0 | 0.0 | 0.00 | 0.00 | 0.00 | 48 | 1023.3 |
| 20260906034536 | 64 | 192 | 0.0 | 0.9 | 0.00 | 0.00 | 0.00 | 48 | 1023.3 |
| 20260906034031 | 64 | 211 | 0.0 | 0.0 | 0.00 | 0.00 | 0.00 | 47 | 1023.3 |
| 20260906033526 | 64 | 202 | 0.9 | 0.9 | 0.00 | 0.00 | 0.00 | 45 | 1023.3 |
| 20260906033022 | 65 | 213 | 0.0 | 0.0 | 0.00 | 0.00 | 0.00 | 46 | 1023.2 |
| 20260906032519 | 65 | 200 | 0.0 | 0.0 | 0.00 | 0.00 | 0.00 | 46 | 1023.2 |
| 20260906032018 | 66 | 212 | 0.0 | 0.0 | 0.00 | 0.00 | 0.00 | 46 | 1023.2 |
| 20260906031514 | 66 | 195 | 0.0 | 0.0 | 0.00 | 0.00 | 0.00 | 46 | 1022.9 |
| 20260906031010 | 66 | 202 | 0.9 | 0.9 | 0.00 | 0.00 | 0.00 | 45 | 1022.7 |
| 20260906030509 | 66 | 210 | 0.0 | 0.0 | 0.00 | 0.00 | 0.00 | 43 | 1022.7 |
| 20260906030008 | 66 | 211 | 0.0 | 0.0 | 0.00 | 0.00 | 0.00 | 46 | 1022.5 |
| 20260906025508 | 66 | 213 | 0.0 | 0.0 | 0.00 | 0.00 | 0.00 | 45 | 1022.5 |
| 20260906025007 | 67 | 212 | 0.0 | 0.0 | 0.00 | 0.00 | 0.00 | 44 | 1022.5 |
| 20260906024502 | 67 | 213 | 0.0 | 0.0 | 0.00 | 0.00 | 0.00 | 46 | 1022.5 |
| 20260906024002 | 68 | 203 | 0.0 | 0.0 | 0.00 | 0.00 | 0.00 | 44 | 1022.1 |
| 20260906023458 | 68 | 209 | 0.0 | 0.0 | 0.00 | 0.00 | 0.00 | 47 | 1022.1 |
| 20260906022953 | 68 | 206 | 0.0 | 0.0 | 0.00 | 0.00 | 0.00 | 46 | 1022.1 |
| 20260906022448 | 69 | 206 | 0.0 | 0.0 | 0.00 | 0.00 | 0.00 | 45 | 1021.8 |
| 20260906021943 | 69 | 208 | 0.0 | 0.0 | 0.00 | 0.00 | 0.00 | 46 | 1021.8 |
| 20260906021443 | 69 | 209 | 0.0 | 0.0 | 0.00 | 0.00 | 0.00 | 47 | 1021.9 |
| 20260906020938 | 70 | 209 | 0.0 | 0.0 | 0.00 | 0.00 | 0.00 | 46 | 1021.5 |
| 20260906020432 | 71 | 209 | 0.0 | 0.0 | 0.00 | 0.00 | 0.00 | 47 | 1021.7 |
| 20260906015927 | 72 | 210 | 0.0 | 0.0 | 0.00 | 0.00 | 0.00 | 46 | 1021.4 |
| 20260906015426 | 73 | 209 | 0.0 | 0.0 | 0.00 | 0.00 | 0.00 | 41 | 1021.4 |
| 20260906014926 | 73 | 213 | 0.0 | 0.0 | 0.00 | 0.00 | 0.00 | 42 | 1021.3 |
| 20260906014426 | 74 | 214 | 0.0 | 0.0 | 0.00 | 0.00 | 0.00 | 41 | 1021.3 |
| 20260906013922 | 75 | 214 | 0.0 | 0.0 | 0.00 | 0.00 | 0.00 | 40 | 1021.4 |
| 20260906013418 | 76 | 221 | 0.0 | 0.0 | 0.00 | 0.00 | 0.00 | 40 | 1021.4 |
| 20260906012913 | 77 | 217 | 0.0 | 0.0 | 0.00 | 0.00 | 0.00 | 33 | 1021.4 |
| 20260906012408 | 78 | 209 | 0.0 | 0.0 | 0.00 | 0.00 | 0.00 | 32 | 1021.3 |
| 20260906011907 | 79 | 222 | 0.0 | 0.0 | 0.00 | 0.00 | 0.00 | 31 | 1021.3 |
| 20260906011403 | 79 | 209 | 0.0 | 0.0 | 0.00 | 0.00 | 0.00 | 32 | 1021.3 |
| 20260906010858 | 80 | 215 | 0.0 | 0.0 | 0.00 | 0.00 | 0.00 | 32 | 1021.2 |
| 20260906010354 | 81 | 220 | 0.0 | 0.0 | 0.00 | 0.00 | 0.00 | 31 | 1021.3 |
| 20260906005849 | 82 | 216 | 0.0 | 0.0 | 0.00 | 0.00 | 0.00 | 31 | 1021.3 |
| 20260906005349 | 82 | 228 | 0.0 | 0.9 | 0.00 | 0.00 | 0.00 | 29 | 1021.3 |
| 20260906004847 | 82 | 217 | 0.0 | 0.0 | 0.00 | 0.00 | 0.00 | 31 | 1021.3 |
| 20260906004347 | 82 | 215 | 0.9 | 0.9 | 0.00 | 0.00 | 0.00 | 28 | 1021.2 |
| 20260906003842 | 83 | 204 | 0.9 | 0.9 | 0.00 | 0.00 | 0.00 | 28 | 1021.3 |
| 20260906003338 | 83 | 206 | 0.0 | 0.0 | 0.00 | 0.00 | 0.00 | 29 | 1021.2 |
| 20260906002833 | 83 | 221 | 0.9 | 0.9 | 0.00 | 0.00 | 0.00 | 28 | 1021.4 |
| 20260906002332 | 83 | 241 | 0.9 | 0.9 | 0.00 | 0.00 | 0.00 | 29 | 1021.2 |
| 20260906001828 | 83 | 219 | 0.9 | 0.9 | 0.00 | 0.00 | 0.00 | 28 | 1021.3 |
| 20260906001323 | 83 | 201 | 0.9 | 0.9 | 0.00 | 0.00 | 0.00 | 29 | 1021.4 |
| 20260906000819 | 84 | 256 | 1.7 | 2.6 | 0.00 | 0.00 | 0.00 | 27 | 1021.5 |
| 20260906000313 | 84 | 226 | 2.6 | 2.6 | 0.00 | 0.00 | 0.00 | 27 | 1021.3 |
| 20260905235808 | 85 | 225 | 0.0 | 0.0 | 0.00 | 0.00 | 0.00 | 28 | 1021.3 |
| 20260905235308 | 85 | 231 | 3.5 | 5.2 | 0.00 | 0.00 | 0.00 | 28 | 1021.2 |
| 20260905234804 | 85 | 211 | 0.0 | 0.0 | 0.00 | 0.00 | 0.00 | 28 | 1021.2 |
| 20260905234259 | 85 | 178 | 0.0 | 0.9 | 0.00 | 0.00 | 0.00 | 28 | 1021.2 |
| 20260905233754 | 86 | 221 | 1.7 | 1.7 | 0.00 | 0.00 | 0.00 | 27 | 1021.4 |
| 20260905233254 | 86 | 221 | 1.7 | 2.6 | 0.00 | 0.00 | 0.00 | 27 | 1021.2 |
| 20260905232753 | 86 | 190 | 0.0 | 0.9 | 0.00 | 0.00 | 0.00 | 27 | 1021.2 |
| 20260905232249 | 87 | 228 | 1.7 | 1.7 | 0.00 | 0.00 | 0.00 | 27 | 1021.4 |
| 20260905231745 | 88 | 187 | 0.9 | 1.7 | 0.00 | 0.00 | 0.00 | 27 | 1021.2 |
| 20260905231240 | 88 | 218 | 1.7 | 1.7 | 0.00 | 0.00 | 0.00 | 25 | 1021.2 |
| 20260905230736 | 89 | 219 | 2.6 | 2.6 | 0.00 | 0.00 | 0.00 | 25 | 1021.2 |
| 20260905230234 | 89 | 210 | 0.9 | 1.7 | 0.00 | 0.00 | 0.00 | 26 | 1021.3 |
| 20260905225733 | 89 | 247 | 2.6 | 4.3 | 0.00 | 0.00 | 0.00 | 25 | 1021.4 |